createdAt,value
2022-12-06T00:00:29.278Z,965.64
2022-12-06T00:01:29.276Z,965.61
2022-12-06T00:02:29.278Z,965.62
2022-12-06T00:03:29.385Z,965.56
2022-12-06T00:04:29.084Z,965.58
2022-12-06T00:05:29.142Z,965.62
2022-12-06T00:06:28.989Z,965.65
2022-12-06T00:07:29.210Z,965.62
2022-12-06T00:08:28.884Z,965.64
2022-12-06T00:09:28.965Z,965.64
2022-12-06T00:10:28.790Z,965.60
2022-12-06T00:11:29.181Z,965.60
2022-12-06T00:12:28.695Z,965.58
2022-12-06T00:13:28.636Z,965.58
2022-12-06T00:14:28.587Z,965.62
2022-12-06T00:15:28.596Z,965.59
2022-12-06T00:16:28.546Z,965.60
2022-12-06T00:17:28.610Z,965.60
2022-12-06T00:18:28.397Z,965.58
2022-12-06T00:19:28.342Z,965.61
2022-12-06T00:20:28.294Z,965.62
2022-12-06T00:21:28.448Z,965.60
2022-12-06T00:22:28.288Z,965.62
2022-12-06T00:23:31.645Z,965.58
2022-12-06T00:24:28.097Z,965.54
2022-12-06T00:25:28.044Z,965.55
2022-12-06T00:26:27.994Z,965.53
2022-12-06T00:27:28.072Z,965.56
2022-12-06T00:28:27.928Z,965.53
2022-12-06T00:29:28.085Z,965.55
2022-12-06T00:30:27.802Z,965.54
2022-12-06T00:31:27.938Z,965.53
2022-12-06T00:32:27.726Z,965.58
2022-12-06T00:33:27.708Z,965.51
2022-12-06T00:34:27.766Z,965.57
2022-12-06T00:35:27.716Z,965.51
2022-12-06T00:36:27.507Z,965.55
2022-12-06T00:37:27.450Z,965.57
2022-12-06T00:38:27.403Z,965.49
2022-12-06T00:39:27.547Z,965.51
2022-12-06T00:40:27.335Z,965.47
2022-12-06T00:41:27.354Z,965.49
2022-12-06T00:42:27.206Z,965.42
2022-12-06T00:43:27.367Z,965.46
2022-12-06T00:44:27.106Z,965.44
2022-12-06T00:45:27.183Z,965.43
2022-12-06T00:46:27.366Z,965.42
2022-12-06T00:47:27.202Z,965.43
2022-12-06T00:48:26.909Z,965.41
2022-12-06T00:49:27.001Z,965.41
2022-12-06T00:50:26.812Z,965.40
2022-12-06T00:51:26.813Z,965.45
2022-12-06T00:52:26.723Z,965.39
2022-12-06T00:53:26.831Z,965.40
2022-12-06T00:54:26.612Z,965.40
2022-12-06T00:55:26.640Z,965.38
2022-12-06T00:56:26.514Z,965.38
2022-12-06T00:57:26.862Z,965.33
2022-12-06T00:58:26.413Z,965.34
2022-12-06T00:59:26.466Z,965.32
2022-12-06T01:00:26.314Z,965.34
2022-12-06T01:01:26.564Z,965.35
2022-12-06T01:02:26.218Z,965.34
2022-12-06T01:03:29.637Z,965.34
2022-12-06T01:04:26.118Z,965.36
2022-12-06T01:05:26.298Z,965.35
2022-12-06T01:06:26.024Z,965.36
2022-12-06T01:07:26.122Z,965.36
2022-12-06T01:08:26.171Z,965.35
2022-12-06T01:09:26.128Z,965.34
2022-12-06T01:10:25.822Z,965.30
2022-12-06T01:11:25.943Z,965.31
2022-12-06T01:12:25.749Z,965.30
2022-12-06T01:13:25.768Z,965.30
2022-12-06T01:14:25.653Z,965.31
2022-12-06T01:15:25.769Z,965.30
2022-12-06T01:16:25.588Z,965.26
2022-12-06T01:17:25.606Z,965.30
2022-12-06T01:18:25.424Z,965.29
2022-12-06T01:19:25.799Z,965.28
2022-12-06T01:20:25.398Z,965.32
2022-12-06T01:21:25.287Z,965.27
2022-12-06T01:22:25.405Z,965.25
2022-12-06T01:23:25.183Z,965.31
2022-12-06T01:24:25.236Z,965.33
2022-12-06T01:25:26.250Z,965.35
2022-12-06T01:26:25.029Z,965.41
2022-12-06T01:27:25.261Z,965.37
2022-12-06T01:28:24.933Z,965.35
2022-12-06T01:29:25.263Z,965.37
2022-12-06T01:30:24.883Z,965.40
2022-12-06T01:31:24.892Z,965.40
2022-12-06T01:32:24.858Z,965.38
2022-12-06T01:33:24.681Z,965.37
2022-12-06T01:34:24.876Z,965.36
2022-12-06T01:35:24.602Z,965.35
2022-12-06T01:36:24.686Z,965.38
2022-12-06T01:37:24.486Z,965.41
2022-12-06T01:38:24.434Z,965.35
2022-12-06T01:39:24.385Z,965.38
2022-12-06T01:40:24.507Z,965.34
2022-12-06T01:41:24.576Z,965.34
2022-12-06T01:42:24.524Z,965.32
2022-12-06T01:43:24.190Z,965.34
2022-12-06T01:44:24.392Z,965.33
2022-12-06T01:45:24.092Z,965.30
2022-12-06T01:46:24.214Z,965.28
2022-12-06T01:47:23.993Z,965.30
2022-12-06T01:48:24.160Z,965.31
2022-12-06T01:49:23.891Z,965.26
2022-12-06T01:50:23.847Z,965.28
2022-12-06T01:51:23.980Z,965.25
2022-12-06T01:52:23.745Z,965.26
2022-12-06T01:53:25.679Z,965.31
2022-12-06T01:54:23.844Z,965.29
2022-12-06T01:55:23.798Z,965.29
2022-12-06T01:56:23.805Z,965.27
2022-12-06T01:57:23.499Z,965.30
2022-12-06T01:58:23.619Z,965.26
2022-12-06T01:59:23.399Z,965.27
2022-12-06T02:00:23.635Z,965.26
2022-12-06T02:01:23.326Z,965.26
2022-12-06T02:02:23.294Z,965.25
2022-12-06T02:03:23.199Z,965.22
2022-12-06T02:04:23.251Z,965.25
2022-12-06T02:05:23.323Z,965.23
2022-12-06T02:06:23.265Z,965.21
2022-12-06T02:07:23.006Z,965.16
2022-12-06T02:08:23.050Z,965.20
2022-12-06T02:09:22.909Z,965.17
2022-12-06T02:10:23.091Z,965.17
2022-12-06T02:11:22.841Z,965.22
2022-12-06T02:12:22.902Z,965.20
2022-12-06T02:13:22.713Z,965.22
2022-12-06T02:14:22.708Z,965.16
2022-12-06T02:15:22.614Z,965.16
2022-12-06T02:16:22.769Z,965.21
2022-12-06T02:17:22.793Z,965.19
2022-12-06T02:18:22.743Z,965.19
2022-12-06T02:19:22.418Z,965.14
2022-12-06T02:20:22.551Z,965.16
2022-12-06T02:21:22.327Z,965.16
2022-12-06T02:22:22.360Z,965.13
2022-12-06T02:23:22.329Z,965.13
2022-12-06T02:24:23.401Z,965.14
2022-12-06T02:25:22.227Z,965.08
2022-12-06T02:26:22.182Z,965.09
2022-12-06T02:27:22.029Z,965.05
2022-12-06T02:28:22.201Z,965.07
2022-12-06T02:29:21.969Z,965.07
2022-12-06T02:30:22.010Z,965.00
2022-12-06T02:31:21.890Z,965.02
2022-12-06T02:32:22.024Z,964.99
2022-12-06T02:33:21.729Z,964.97
2022-12-06T02:34:21.836Z,964.94
2022-12-06T02:35:22.096Z,964.89
2022-12-06T02:36:21.844Z,964.92
2022-12-06T02:37:21.538Z,964.92
2022-12-06T02:38:21.664Z,964.91
2022-12-06T02:39:21.443Z,964.94
2022-12-06T02:40:21.465Z,964.91
2022-12-06T02:41:21.386Z,964.92
2022-12-06T02:42:21.484Z,964.88
2022-12-06T02:43:21.242Z,964.87
2022-12-06T02:44:21.291Z,964.94
2022-12-06T02:45:21.141Z,964.93
2022-12-06T02:46:21.370Z,964.96
2022-12-06T02:47:21.157Z,964.92
2022-12-06T02:48:21.127Z,964.96
2022-12-06T02:49:20.945Z,964.96
2022-12-06T02:50:21.131Z,964.97
2022-12-06T02:51:20.873Z,964.96
2022-12-06T02:52:20.939Z,965.04
2022-12-06T02:53:20.754Z,964.97
2022-12-06T02:54:21.161Z,964.95
2022-12-06T02:55:20.646Z,964.98
2022-12-06T02:56:20.766Z,964.96
2022-12-06T02:57:20.567Z,964.94
2022-12-06T02:58:20.782Z,965.00
2022-12-06T02:59:20.451Z,965.00
2022-12-06T03:00:20.597Z,965.03
2022-12-06T03:01:20.407Z,965.09
2022-12-06T03:02:20.438Z,965.11
2022-12-06T03:03:20.257Z,965.08
2022-12-06T03:04:20.420Z,965.07
2022-12-06T03:05:20.158Z,965.08
2022-12-06T03:06:20.430Z,965.09
2022-12-06T03:07:20.061Z,965.08
2022-12-06T03:08:20.374Z,965.12
2022-12-06T03:09:20.247Z,965.06
2022-12-06T03:10:19.913Z,965.04
2022-12-06T03:11:20.056Z,965.07
2022-12-06T03:12:19.840Z,965.09
2022-12-06T03:13:19.863Z,965.01
2022-12-06T03:14:19.721Z,965.05
2022-12-06T03:15:19.667Z,965.03
2022-12-06T03:16:19.964Z,965.01
2022-12-06T03:17:19.570Z,964.99
2022-12-06T03:18:19.701Z,964.96
2022-12-06T03:19:19.474Z,964.94
2022-12-06T03:20:19.515Z,964.97
2022-12-06T03:21:19.524Z,964.93
2022-12-06T03:22:19.323Z,964.95
2022-12-06T03:23:19.736Z,964.89
2022-12-06T03:24:19.233Z,964.89
2022-12-06T03:25:20.364Z,964.90
2022-12-06T03:26:19.132Z,964.91
2022-12-06T03:27:19.085Z,964.93
2022-12-06T03:28:19.158Z,964.97
2022-12-06T03:29:19.010Z,964.93
2022-12-06T03:30:19.379Z,964.91
2022-12-06T03:31:18.920Z,964.90
2022-12-06T03:32:18.977Z,964.90
2022-12-06T03:33:18.789Z,964.93
2022-12-06T03:34:18.741Z,964.89
2022-12-06T03:35:19.005Z,964.86
2022-12-06T03:36:18.641Z,964.86
2022-12-06T03:37:18.817Z,964.88
2022-12-06T03:38:18.546Z,964.81
2022-12-06T03:39:18.496Z,964.83
2022-12-06T03:40:18.631Z,964.82
2022-12-06T03:41:18.399Z,964.75
2022-12-06T03:42:18.444Z,964.76
2022-12-06T03:43:18.498Z,964.72
2022-12-06T03:44:18.476Z,964.76
2022-12-06T03:45:18.209Z,964.71
2022-12-06T03:46:18.450Z,964.71
2022-12-06T03:47:18.127Z,964.73
2022-12-06T03:48:18.285Z,964.71
2022-12-06T03:49:18.009Z,964.70
2022-12-06T03:50:18.297Z,964.66
2022-12-06T03:51:18.093Z,964.68
2022-12-06T03:52:17.878Z,964.65
2022-12-06T03:53:17.909Z,964.66
2022-12-06T03:54:17.758Z,964.64
2022-12-06T03:55:17.928Z,964.65
2022-12-06T03:56:17.775Z,964.66
2022-12-06T03:57:17.613Z,964.66
2022-12-06T03:58:17.739Z,964.71
2022-12-06T03:59:17.515Z,964.69
2022-12-06T04:00:17.765Z,964.68
2022-12-06T04:01:17.456Z,964.67
2022-12-06T04:02:17.853Z,964.70
2022-12-06T04:03:17.643Z,964.70
2022-12-06T04:04:17.353Z,964.71
2022-12-06T04:05:17.378Z,964.66
2022-12-06T04:06:17.177Z,964.66
2022-12-06T04:07:17.396Z,964.67
2022-12-06T04:08:17.339Z,964.68
2022-12-06T04:09:17.055Z,964.66
2022-12-06T04:10:17.214Z,964.71
2022-12-06T04:11:16.938Z,964.68
2022-12-06T04:12:17.021Z,964.73
2022-12-06T04:13:19.797Z,964.76
2022-12-06T04:14:17.038Z,964.72
2022-12-06T04:15:16.840Z,964.75
2022-12-06T04:16:16.860Z,964.76
2022-12-06T04:17:17.064Z,964.72
2022-12-06T04:18:16.600Z,964.73
2022-12-06T04:19:16.660Z,964.72
2022-12-06T04:20:16.494Z,964.68
2022-12-06T04:21:16.449Z,964.69
2022-12-06T04:22:16.427Z,964.70
2022-12-06T04:23:16.590Z,964.71
2022-12-06T04:24:16.300Z,964.71
2022-12-06T04:25:16.503Z,964.75
2022-12-06T04:26:16.207Z,964.73
2022-12-06T04:27:16.156Z,964.71
2022-12-06T04:28:16.104Z,964.70
2022-12-06T04:29:16.331Z,964.64
2022-12-06T04:30:16.010Z,964.66
2022-12-06T04:31:21.802Z,964.67
2022-12-06T04:32:15.912Z,964.66
2022-12-06T04:33:15.868Z,964.67
2022-12-06T04:34:15.812Z,964.65
2022-12-06T04:35:16.169Z,964.68
2022-12-06T04:36:15.714Z,964.72
2022-12-06T04:37:15.771Z,964.69
2022-12-06T04:38:15.621Z,964.65
2022-12-06T04:39:20.546Z,964.67
2022-12-06T04:40:15.521Z,964.65
2022-12-06T04:41:15.603Z,964.66
2022-12-06T04:42:15.430Z,964.64
2022-12-06T04:43:15.612Z,964.66
2022-12-06T04:44:15.325Z,964.65
2022-12-06T04:45:15.636Z,964.69
2022-12-06T04:46:15.260Z,964.63
2022-12-06T04:47:15.436Z,964.63
2022-12-06T04:48:15.134Z,964.64
2022-12-06T04:49:15.246Z,964.63
2022-12-06T04:50:15.034Z,964.61
2022-12-06T04:51:15.259Z,964.55
2022-12-06T04:52:14.946Z,964.55
2022-12-06T04:53:15.068Z,964.56
2022-12-06T04:54:14.840Z,964.60
2022-12-06T04:55:15.081Z,964.60
2022-12-06T04:56:14.749Z,964.56
2022-12-06T04:57:15.099Z,964.57
2022-12-06T04:58:14.649Z,964.60
2022-12-06T04:59:14.708Z,964.56
2022-12-06T05:00:14.555Z,964.55
2022-12-06T05:01:14.751Z,964.53
2022-12-06T05:02:14.453Z,964.51
2022-12-06T05:03:14.729Z,964.52
2022-12-06T05:04:14.406Z,964.47
2022-12-06T05:05:14.745Z,964.52
2022-12-06T05:06:14.260Z,964.51
2022-12-06T05:07:14.356Z,964.48
2022-12-06T05:08:14.292Z,964.52
2022-12-06T05:09:14.367Z,964.54
2022-12-06T05:10:14.068Z,964.52
2022-12-06T05:11:14.176Z,964.48
2022-12-06T05:12:13.968Z,964.46
2022-12-06T05:13:15.212Z,964.48
2022-12-06T05:14:13.876Z,964.47
2022-12-06T05:15:15.960Z,964.47
2022-12-06T05:16:14.026Z,964.46
2022-12-06T05:17:13.727Z,964.48
2022-12-06T05:18:13.823Z,964.49
2022-12-06T05:19:13.707Z,964.48
2022-12-06T05:20:13.835Z,964.41
2022-12-06T05:21:13.527Z,964.44
2022-12-06T05:22:13.483Z,964.45
2022-12-06T05:23:13.652Z,964.41
2022-12-06T05:24:13.704Z,964.44
2022-12-06T05:25:13.459Z,964.43
2022-12-06T05:26:13.284Z,964.44
2022-12-06T05:27:13.474Z,964.45
2022-12-06T05:28:13.187Z,964.45
2022-12-06T05:29:13.282Z,964.47
2022-12-06T05:30:13.107Z,964.46
2022-12-06T05:31:13.264Z,964.44
2022-12-06T05:32:13.006Z,964.44
2022-12-06T05:33:13.223Z,964.47
2022-12-06T05:34:13.019Z,964.44
2022-12-06T05:35:13.069Z,964.44
2022-12-06T05:36:13.038Z,964.44
2022-12-06T05:37:12.753Z,964.40
2022-12-06T05:38:12.837Z,964.41
2022-12-06T05:39:12.655Z,964.42
2022-12-06T05:40:12.603Z,964.43
2022-12-06T05:41:12.861Z,964.49
2022-12-06T05:42:20.440Z,964.47
2022-12-06T05:43:12.456Z,964.48
2022-12-06T05:44:12.886Z,964.49
2022-12-06T05:45:12.362Z,964.52
2022-12-06T05:46:12.352Z,964.58
2022-12-06T05:47:12.496Z,964.54
2022-12-06T05:48:12.225Z,964.54
2022-12-06T05:49:12.299Z,964.51
2022-12-06T05:50:12.150Z,964.49
2022-12-06T05:51:12.318Z,964.45
2022-12-06T05:52:12.326Z,964.44
2022-12-06T05:53:11.971Z,964.48
2022-12-06T05:54:12.139Z,964.42
2022-12-06T05:55:11.906Z,964.45
2022-12-06T05:56:12.355Z,964.44
2022-12-06T05:57:11.778Z,964.47
2022-12-06T05:58:11.869Z,964.44
2022-12-06T05:59:11.967Z,964.45
2022-12-06T06:03:48.013Z,964.53
2022-12-06T06:04:46.832Z,964.51
2022-12-06T06:05:47.034Z,964.48
2022-12-06T06:06:46.719Z,964.48
2022-12-06T06:07:47.907Z,964.47
2022-12-06T06:08:46.633Z,964.55
2022-12-06T06:09:46.601Z,964.51
2022-12-06T06:10:46.523Z,964.53
2022-12-06T06:11:46.670Z,964.56
2022-12-06T06:12:46.423Z,964.55
2022-12-06T06:13:46.683Z,964.56
2022-12-06T06:14:46.330Z,964.54
2022-12-06T06:15:46.542Z,964.53
2022-12-06T06:16:46.394Z,964.53
2022-12-06T06:17:46.306Z,964.54
2022-12-06T06:18:46.121Z,964.55
2022-12-06T06:19:51.173Z,964.56
2022-12-06T06:20:46.027Z,964.52
2022-12-06T06:21:45.980Z,964.49
2022-12-06T06:22:46.193Z,964.48
2022-12-06T06:23:46.139Z,964.46
2022-12-06T06:24:45.833Z,964.46
2022-12-06T06:25:45.950Z,964.46
2022-12-06T06:26:45.730Z,964.45
2022-12-06T06:27:45.966Z,964.47
2022-12-06T06:28:45.636Z,964.48
2022-12-06T06:29:45.809Z,964.42
2022-12-06T06:30:53.296Z,964.41
2022-12-06T06:31:47.747Z,964.36
2022-12-06T06:32:45.441Z,964.36
2022-12-06T06:33:45.806Z,964.37
2022-12-06T06:34:45.338Z,964.31
2022-12-06T06:35:45.407Z,964.37
2022-12-06T06:36:46.128Z,964.35
2022-12-06T06:37:45.423Z,964.30
2022-12-06T06:38:45.178Z,964.30
2022-12-06T06:39:45.237Z,964.31
2022-12-06T06:40:45.058Z,964.30
2022-12-06T06:41:45.251Z,964.35
2022-12-06T06:42:44.944Z,964.35
2022-12-06T06:43:45.058Z,964.40
2022-12-06T06:44:45.137Z,964.39
2022-12-06T06:45:45.100Z,964.35
2022-12-06T06:46:44.745Z,964.35
2022-12-06T06:47:44.892Z,964.36
2022-12-06T06:48:44.818Z,964.33
2022-12-06T06:49:44.905Z,964.33
2022-12-06T06:50:44.550Z,964.32
2022-12-06T06:51:44.707Z,964.31
2022-12-06T06:52:44.464Z,964.33
2022-12-06T06:53:44.720Z,964.35
2022-12-06T06:54:44.578Z,964.36
2022-12-06T06:55:44.537Z,964.33
2022-12-06T06:56:44.250Z,964.31
2022-12-06T06:57:44.343Z,964.33
2022-12-06T06:58:44.156Z,964.34
2022-12-06T06:59:44.359Z,964.28
2022-12-06T07:00:44.105Z,964.29
2022-12-06T07:01:44.135Z,964.29
2022-12-06T07:02:43.993Z,964.29
2022-12-06T07:03:44.280Z,964.29
2022-12-06T07:04:43.856Z,964.23
2022-12-06T07:05:43.989Z,964.27
2022-12-06T07:06:43.768Z,964.27
2022-12-06T07:07:43.939Z,964.30
2022-12-06T07:08:43.661Z,964.36
2022-12-06T07:09:43.711Z,964.33
2022-12-06T07:10:43.558Z,964.31
2022-12-06T07:11:43.724Z,964.30
2022-12-06T07:12:43.468Z,964.31
2022-12-06T07:13:46.905Z,964.30
2022-12-06T07:14:43.369Z,964.30
2022-12-06T07:15:43.549Z,964.32
2022-12-06T07:16:43.280Z,964.32
2022-12-06T07:17:43.217Z,964.35
2022-12-06T07:18:43.365Z,964.35
2022-12-06T07:19:43.117Z,964.34
2022-12-06T07:20:43.176Z,964.36
2022-12-06T07:21:43.047Z,964.36
2022-12-06T07:22:42.970Z,964.39
2022-12-06T07:23:42.997Z,964.36
2022-12-06T07:24:46.576Z,964.37
2022-12-06T07:25:43.011Z,964.35
2022-12-06T07:26:42.863Z,964.36
2022-12-06T07:27:42.819Z,964.38
2022-12-06T07:28:42.676Z,964.43
2022-12-06T07:29:42.836Z,964.40
2022-12-06T07:30:42.659Z,964.42
2022-12-06T07:31:42.646Z,964.42
2022-12-06T07:32:42.507Z,964.42
2022-12-06T07:33:42.674Z,964.43
2022-12-06T07:34:42.516Z,964.49
2022-12-06T07:36:11.056Z,964.47
2022-12-06T07:36:42.294Z,964.45
2022-12-06T07:37:42.282Z,964.43
2022-12-06T07:38:42.183Z,964.43
2022-12-06T07:39:42.301Z,964.48
2022-12-06T07:41:03.599Z,964.43
2022-12-06T07:41:42.036Z,964.45
2022-12-06T07:42:41.988Z,964.40
2022-12-06T07:43:42.020Z,964.33
2022-12-06T07:44:41.888Z,964.33
2022-12-06T07:45:42.054Z,964.36
2022-12-06T07:46:41.794Z,964.32
2022-12-06T07:47:41.945Z,964.36
2022-12-06T07:48:41.835Z,964.32
2022-12-06T07:49:41.772Z,964.35
2022-12-06T07:50:41.596Z,964.36
2022-12-06T07:51:41.553Z,964.37
2022-12-06T07:52:41.498Z,964.37
2022-12-06T07:53:41.573Z,964.38
2022-12-06T07:54:41.632Z,964.34
2022-12-06T07:55:41.387Z,964.35
2022-12-06T07:56:41.303Z,964.37
2022-12-06T07:57:43.624Z,964.40
2022-12-06T07:58:41.204Z,964.40
2022-12-06T07:59:41.212Z,964.41
2022-12-06T08:00:41.131Z,964.35
2022-12-06T08:01:41.352Z,964.35
2022-12-06T08:02:41.011Z,964.41
2022-12-06T08:03:40.968Z,964.38
2022-12-06T08:04:41.085Z,964.41
2022-12-06T08:05:40.910Z,964.37
2022-12-06T08:06:40.854Z,964.40
2022-12-06T08:07:40.849Z,964.35
2022-12-06T08:08:40.872Z,964.36
2022-12-06T08:09:40.771Z,964.38
2022-12-06T08:10:40.621Z,964.37
2022-12-06T08:11:40.785Z,964.39
2022-12-06T08:12:40.521Z,964.40
2022-12-06T08:13:40.698Z,964.40
2022-12-06T08:14:40.421Z,964.36
2022-12-06T08:15:40.433Z,964.41
2022-12-06T08:16:40.515Z,964.39
2022-12-06T08:17:40.301Z,964.39
2022-12-06T08:18:40.326Z,964.43
2022-12-06T08:19:40.182Z,964.42
2022-12-06T08:20:40.341Z,964.43
2022-12-06T08:21:40.091Z,964.40
2022-12-06T08:22:40.156Z,964.43
2022-12-06T08:23:40.211Z,964.44
2022-12-06T08:24:40.162Z,964.44
2022-12-06T08:25:39.897Z,964.48
2022-12-06T08:26:39.973Z,964.46
2022-12-06T08:27:39.879Z,964.48
2022-12-06T08:28:39.747Z,964.48
2022-12-06T08:29:39.790Z,964.49
2022-12-06T08:30:39.733Z,964.51
2022-12-06T08:31:39.998Z,964.53
2022-12-06T08:32:39.551Z,964.53
2022-12-06T08:33:39.502Z,964.56
2022-12-06T08:34:39.620Z,964.52
2022-12-06T08:35:39.404Z,964.54
2022-12-06T08:36:39.436Z,964.51
2022-12-06T08:37:39.333Z,964.52
2022-12-06T08:38:39.553Z,964.50
2022-12-06T08:39:39.212Z,964.52
2022-12-06T08:40:39.264Z,964.51
2022-12-06T08:41:39.118Z,964.51
2022-12-06T08:42:39.275Z,964.53
2022-12-06T08:43:39.131Z,964.54
2022-12-06T08:44:39.083Z,964.52
2022-12-06T08:45:38.921Z,964.51
2022-12-06T08:46:39.142Z,964.52
2022-12-06T08:47:38.828Z,964.54
2022-12-06T08:48:43.022Z,964.52
2022-12-06T08:49:38.959Z,964.51
2022-12-06T08:50:38.922Z,964.56
2022-12-06T08:51:38.630Z,964.59
2022-12-06T08:52:38.845Z,964.54
2022-12-06T08:53:38.542Z,964.60
2022-12-06T08:54:38.540Z,964.61
2022-12-06T08:55:38.492Z,964.59
2022-12-06T08:56:38.561Z,964.54
2022-12-06T08:57:38.344Z,964.62
2022-12-06T08:58:38.368Z,964.58
2022-12-06T08:59:38.250Z,964.58
2022-12-06T09:00:39.425Z,964.67
2022-12-06T09:01:38.883Z,964.67
2022-12-06T09:02:38.117Z,964.67
2022-12-06T09:03:38.083Z,964.70
2022-12-06T09:04:38.260Z,964.71
2022-12-06T09:05:37.961Z,964.73
2022-12-06T09:06:38.013Z,964.75
2022-12-06T09:07:37.911Z,964.73
2022-12-06T09:08:37.824Z,964.73
2022-12-06T09:09:37.880Z,964.76
2022-12-06T09:10:37.842Z,964.75
2022-12-06T09:11:37.673Z,964.82
2022-12-06T09:12:37.855Z,964.78
2022-12-06T09:13:37.609Z,964.76
2022-12-06T09:14:37.528Z,964.77
2022-12-06T09:15:37.540Z,964.79
2022-12-06T09:16:37.679Z,964.76
2022-12-06T09:17:37.387Z,964.74
2022-12-06T09:18:37.485Z,964.79
2022-12-06T09:19:37.547Z,964.81
2022-12-06T09:20:37.247Z,964.84
2022-12-06T09:21:37.192Z,964.81
2022-12-06T09:22:37.320Z,964.77
2022-12-06T09:23:37.106Z,964.84
2022-12-06T09:24:37.119Z,964.85
2022-12-06T09:25:37.032Z,964.81
2022-12-06T09:26:36.953Z,964.79
2022-12-06T09:27:36.913Z,964.79
2022-12-06T09:28:36.948Z,964.77
2022-12-06T09:29:40.529Z,964.76
2022-12-06T09:30:36.962Z,964.77
2022-12-06T09:31:36.871Z,964.78
2022-12-06T09:32:36.675Z,964.74
2022-12-06T09:33:36.623Z,964.72
2022-12-06T09:34:36.791Z,964.79
2022-12-06T09:35:36.527Z,964.76
2022-12-06T09:36:36.614Z,964.79
2022-12-06T09:37:36.471Z,964.75
2022-12-06T09:38:36.383Z,964.75
2022-12-06T09:39:36.415Z,964.79
2022-12-06T09:40:41.365Z,964.75
2022-12-06T09:41:36.430Z,964.76
2022-12-06T09:42:36.195Z,964.79
2022-12-06T09:43:36.443Z,964.77
2022-12-06T09:44:36.254Z,964.77
2022-12-06T09:45:36.049Z,964.74
2022-12-06T09:46:36.081Z,964.76
2022-12-06T09:47:35.992Z,964.74
2022-12-06T09:48:36.069Z,964.72
2022-12-06T09:49:35.862Z,964.70
2022-12-06T09:50:35.815Z,964.71
2022-12-06T09:51:35.768Z,964.69
2022-12-06T09:52:35.795Z,964.69
2022-12-06T09:53:35.764Z,964.66
2022-12-06T09:54:35.708Z,964.67
2022-12-06T09:55:35.580Z,964.66
2022-12-06T09:56:35.529Z,964.66
2022-12-06T09:57:35.508Z,964.62
2022-12-06T09:58:35.639Z,964.65
2022-12-06T09:59:35.414Z,964.63
2022-12-06T10:00:35.438Z,964.62
2022-12-06T10:01:35.312Z,964.62
2022-12-06T10:02:35.306Z,964.63
2022-12-06T10:03:35.413Z,964.59
2022-12-06T10:04:35.382Z,964.66
2022-12-06T10:05:35.102Z,964.63
2022-12-06T10:06:35.183Z,964.59
2022-12-06T10:07:35.058Z,964.58
2022-12-06T10:08:35.277Z,964.59
2022-12-06T10:09:34.952Z,964.61
2022-12-06T10:10:35.003Z,964.62
2022-12-06T10:11:34.814Z,964.55
2022-12-06T10:12:35.019Z,964.56
2022-12-06T10:13:34.727Z,964.56
2022-12-06T10:14:34.825Z,964.53
2022-12-06T10:15:34.886Z,964.53
2022-12-06T10:16:34.694Z,964.51
2022-12-06T10:17:34.537Z,964.49
2022-12-06T10:18:34.650Z,964.51
2022-12-06T10:19:34.443Z,964.48
2022-12-06T10:20:34.487Z,964.49
2022-12-06T10:21:34.372Z,964.52
2022-12-06T10:22:34.679Z,964.48
2022-12-06T10:23:34.250Z,964.51
2022-12-06T10:24:34.282Z,964.47
2022-12-06T10:25:34.163Z,964.48
2022-12-06T10:26:34.299Z,964.52
2022-12-06T10:27:34.151Z,964.50
2022-12-06T10:28:34.115Z,964.45
2022-12-06T10:29:33.968Z,964.50
2022-12-06T10:30:34.136Z,964.42
2022-12-06T10:31:33.936Z,964.44
2022-12-06T10:32:33.937Z,964.40
2022-12-06T10:33:33.801Z,964.42
2022-12-06T10:34:33.948Z,964.45
2022-12-06T10:35:33.681Z,964.44
2022-12-06T10:36:33.760Z,964.41
2022-12-06T10:37:33.585Z,964.39
2022-12-06T10:38:33.774Z,964.34
2022-12-06T10:39:33.494Z,964.36
2022-12-06T10:40:33.589Z,964.32
2022-12-06T10:41:33.398Z,964.32
2022-12-06T10:42:33.609Z,964.33
2022-12-06T10:43:33.306Z,964.32
2022-12-06T10:44:33.411Z,964.33
2022-12-06T10:45:33.469Z,964.34
2022-12-06T10:46:33.505Z,964.34
2022-12-06T10:47:33.130Z,964.36
2022-12-06T10:48:33.238Z,964.38
2022-12-06T10:49:33.024Z,964.35
2022-12-06T10:50:33.044Z,964.32
2022-12-06T10:51:32.953Z,964.33
2022-12-06T10:52:33.066Z,964.32
2022-12-06T10:53:32.838Z,964.34
2022-12-06T10:54:32.868Z,964.31
2022-12-06T10:55:32.924Z,964.34
2022-12-06T10:56:32.894Z,964.31
2022-12-06T10:57:32.645Z,964.35
2022-12-06T10:58:32.696Z,964.31
2022-12-06T10:59:32.554Z,964.32
2022-12-06T11:00:32.642Z,964.29
2022-12-06T11:01:32.532Z,964.34
2022-12-06T11:02:32.566Z,964.31
2022-12-06T11:03:32.376Z,964.34
2022-12-06T11:04:32.531Z,964.35
2022-12-06T11:05:32.276Z,964.35
2022-12-06T11:06:32.337Z,964.34
2022-12-06T11:07:32.290Z,964.31
2022-12-06T11:08:32.351Z,964.35
2022-12-06T11:09:32.091Z,964.38
2022-12-06T11:10:32.170Z,964.35
2022-12-06T11:11:32.228Z,964.33
2022-12-06T11:12:32.187Z,964.33
2022-12-06T11:13:31.903Z,964.38
2022-12-06T11:14:31.986Z,964.36
2022-12-06T11:15:31.812Z,964.33
2022-12-06T11:16:32.059Z,964.36
2022-12-06T11:17:31.755Z,964.34
2022-12-06T11:18:31.812Z,964.38
2022-12-06T11:19:31.620Z,964.41
2022-12-06T11:20:31.830Z,964.32
2022-12-06T11:21:31.636Z,964.33
2022-12-06T11:22:31.486Z,964.33
2022-12-06T11:23:31.849Z,964.32
2022-12-06T11:24:31.390Z,964.36
2022-12-06T11:25:31.462Z,964.31
2022-12-06T11:26:31.298Z,964.28
2022-12-06T11:27:31.253Z,964.30
2022-12-06T11:28:31.209Z,964.26
2022-12-06T11:29:31.277Z,964.27
2022-12-06T11:30:31.112Z,964.30
2022-12-06T11:31:31.357Z,964.28
2022-12-06T11:32:31.033Z,964.26
2022-12-06T11:33:30.971Z,964.24
2022-12-06T11:34:30.926Z,964.24
2022-12-06T11:35:31.341Z,964.22
2022-12-06T11:36:30.834Z,964.20
2022-12-06T11:37:30.926Z,964.24
2022-12-06T11:38:30.779Z,964.21
2022-12-06T11:39:30.694Z,964.18
2022-12-06T11:40:30.647Z,964.19
2022-12-06T11:41:30.795Z,964.20
2022-12-06T11:42:30.556Z,964.17
2022-12-06T11:43:30.570Z,964.17
2022-12-06T11:44:30.823Z,964.18
2022-12-06T11:45:30.421Z,964.20
2022-12-06T11:46:30.542Z,964.18
2022-12-06T11:47:30.592Z,964.16
2022-12-06T11:48:30.280Z,964.16
2022-12-06T11:49:30.404Z,964.19
2022-12-06T11:50:30.217Z,964.17
2022-12-06T11:51:30.147Z,964.17
2022-12-06T11:52:30.223Z,964.22
2022-12-06T11:53:30.056Z,964.16
2022-12-06T11:54:30.435Z,964.15
2022-12-06T11:55:29.961Z,964.18
2022-12-06T11:56:30.047Z,964.19
2022-12-06T11:57:30.052Z,964.18
2022-12-06T11:58:29.823Z,964.18
2022-12-06T11:59:29.864Z,964.19
2022-12-06T12:00:31.157Z,964.18
2022-12-06T12:01:29.876Z,964.16
2022-12-06T12:02:29.682Z,964.14
2022-12-06T12:03:29.816Z,964.10
2022-12-06T12:04:29.698Z,964.14
2022-12-06T12:05:29.513Z,964.14
2022-12-06T12:06:29.705Z,964.14
2022-12-06T12:07:29.427Z,964.12
2022-12-06T12:08:32.588Z,964.08
2022-12-06T12:09:29.531Z,964.09
2022-12-06T12:10:29.293Z,964.09
2022-12-06T12:11:29.343Z,964.05
2022-12-06T12:12:29.211Z,964.11
2022-12-06T12:13:29.346Z,964.13
2022-12-06T12:14:29.125Z,964.12
2022-12-06T12:15:29.209Z,964.14
2022-12-06T12:16:29.196Z,964.08
2022-12-06T12:17:28.986Z,964.11
2022-12-06T12:18:29.179Z,964.14
2022-12-06T12:19:28.909Z,964.12
2022-12-06T12:20:28.991Z,964.09
2022-12-06T12:21:29.000Z,964.09
2022-12-06T12:22:28.772Z,964.12
2022-12-06T12:23:28.806Z,964.13
2022-12-06T12:24:28.688Z,964.10
2022-12-06T12:25:28.820Z,964.12
2022-12-06T12:26:28.593Z,964.08
2022-12-06T12:27:28.828Z,964.09
2022-12-06T12:28:28.639Z,964.13
2022-12-06T12:29:28.464Z,964.12
2022-12-06T12:30:28.652Z,964.08
2022-12-06T12:31:28.415Z,964.06